Maribor, Slovenia

5:08 AM CEST on August 31, 2015 (GMT +0200)
Maribor | | Change Station
CLOSE
Current Station
Airport
Location: Maribor,
Elevation: 869 ft
Nearby Weather Stations

Elev 869 ft 46.48 °N, 15.68 °E | Updated 8 minutes ago

Patches of Fog
Patches Fog
63 °F
Feels Like 63 °F
N
0
Wind Variable Wind from North

Today
High -- | Low -- °F
--% Chance of Precip.
Yesterday
High -- | Low -- °F
Precip. -- in
6:15 AM 7:39 PM
Full, 97% visible
Pressure 30.04 in
Visibility 0.8 miles
Clouds
Dew Point 61 °F
Humidity 94%
Rainfall 0.00 in
Snow Depth Not available.
UV Not available.
Pollen Not available.
Air Quality Not available.
Flu Activity Not available.
METAR LJMB 310300Z AUTO 00000KT 1300 R32/P2000 BCFG VV003 17/16 Q1017
Pressure 30.04 in
Visibility 0.8 miles
Clouds
Dew Point 61 °F
Humidity 94%
Rainfall 0.00 in
Snow Depth Not available.
UV Not available.
Pollen Not available.
Air Quality Not available.
Flu Activity Not available.
METAR LJMB 310300Z AUTO 00000KT 1300 R32/P2000 BCFG VV003 17/16 Q1017

10-Day Weather Forecast

×

Almanac

Astronomy

Aug. 31, 2015 Rise Set
Actual Time
Civil Twilight
Nautical Twilight
Astronomical Twilight
Moon
Length of Visible Light
Length of Day
Tomorrow will be .
, % of the Moon is Illuminated

Today's Extremes

Country Highs Country Lows

Community

WunderPhotos

Upload Photos

1,851,166 photos uploaded!

WunderBlogs® & News

Nearby

Air Quality

  Air Quality AQ Index Pollutant
Not available.

Snow Depth

Station Depth Elevation

Earthquake Activity

City Distance Mag. Time & Date
Minimum magnitude displayed is 2.5.

Coastal Water Temperatures

Place Temperature

Stations

Nearby Weather Stations

Station Location Temp. Windchill Dew Point Humidity Wind Precip. Elev Updated Type